createdAt,value
2022-08-02T04:00:52.559Z,16.42
2022-08-02T04:05:04.942Z,16.41
2022-08-02T04:09:16.478Z,16.39
2022-08-02T04:13:34.427Z,16.37
2022-08-02T04:17:57.262Z,16.39
2022-08-02T04:22:16.129Z,16.39
2022-08-02T04:26:28.871Z,16.48
2022-08-02T04:30:41.471Z,16.50
2022-08-02T04:35:18.065Z,16.52
2022-08-02T04:39:24.936Z,16.60
2022-08-02T04:43:36.523Z,16.67
2022-08-02T04:48:02.155Z,16.71
2022-08-02T04:52:15.686Z,16.75
2022-08-02T04:56:27.200Z,16.82
2022-08-02T05:00:38.953Z,16.84
2022-08-02T05:04:51.707Z,17.02
2022-08-02T05:09:03.366Z,17.13
2022-08-02T05:13:14.904Z,17.21
2022-08-02T05:17:26.425Z,17.27
2022-08-02T05:21:37.955Z,17.40
2022-08-02T05:25:49.523Z,17.54
2022-08-02T05:30:01.171Z,17.68
2022-08-02T05:34:12.700Z,17.77
2022-08-02T05:38:26.134Z,17.88
2022-08-02T05:42:37.955Z,18.04
2022-08-02T05:46:49.469Z,18.15
2022-08-02T05:51:09.105Z,18.27
2022-08-02T05:55:33.384Z,21.57
2022-08-02T06:00:10.797Z,25.85
2022-08-02T06:04:32.526Z,29.73
2022-08-02T06:08:48.287Z,31.25
2022-08-02T06:13:10.032Z,33.00
2022-08-02T06:17:26.074Z,32.29
2022-08-02T06:22:35.944Z,29.54
2022-08-02T06:26:13.607Z,26.76
2022-08-02T06:30:25.193Z,27.96
2022-08-02T06:34:38.287Z,28.32
2022-08-02T06:38:58.901Z,28.85
2022-08-02T06:43:21.783Z,27.95
2022-08-02T06:47:33.624Z,27.90
2022-08-02T06:51:45.232Z,28.42
2022-08-02T06:55:57.426Z,26.56
2022-08-02T07:00:09.878Z,24.92
2022-08-02T07:04:21.426Z,23.84
2022-08-02T07:08:33.158Z,23.96
2022-08-02T07:12:44.700Z,24.32
2022-08-02T07:16:56.235Z,23.04
2022-08-02T07:21:09.574Z,23.51
2022-08-02T07:25:21.364Z,24.53
2022-08-02T07:29:45.178Z,25.03
2022-08-02T07:33:58.806Z,25.42
2022-08-02T07:38:10.342Z,25.40
2022-08-02T07:42:22.683Z,25.11
2022-08-02T07:46:34.239Z,24.95
2022-08-02T07:50:46.719Z,24.60
2022-08-02T07:54:58.279Z,24.35
2022-08-02T07:59:10.501Z,24.96
2022-08-02T08:03:22.040Z,25.57
2022-08-02T08:07:34.018Z,25.38
2022-08-02T08:11:45.679Z,25.95
2022-08-02T08:15:57.231Z,26.47
2022-08-02T08:20:12.791Z,26.25
2022-08-02T08:24:28.239Z,26.55
2022-08-02T08:28:39.831Z,26.82
2022-08-02T08:32:51.379Z,26.89
2022-08-02T08:37:03.946Z,26.91
2022-08-02T08:41:19.533Z,26.28
2022-08-02T08:45:31.229Z,26.48
2022-08-02T08:49:52.242Z,26.48
2022-08-02T08:54:07.773Z,26.28
2022-08-02T08:58:19.405Z,26.41
2022-08-02T09:02:34.131Z,26.32
2022-08-02T09:06:45.693Z,26.30
2022-08-02T09:10:57.225Z,26.55
2022-08-02T09:15:15.617Z,26.70
2022-08-02T09:19:29.512Z,26.92
2022-08-02T09:23:46.014Z,27.03
2022-08-02T09:27:59.444Z,27.19
2022-08-02T09:32:11.304Z,27.19
2022-08-02T09:36:24.421Z,27.03
2022-08-02T09:40:37.620Z,26.87
2022-08-02T09:44:55.203Z,26.62
2022-08-02T09:49:17.857Z,26.13
2022-08-02T09:53:31.045Z,26.36
2022-08-02T09:57:43.095Z,26.59
2022-08-02T10:02:14.818Z,26.89
2022-08-02T10:06:29.922Z,27.28
2022-08-02T10:10:42.418Z,27.50
2022-08-02T10:14:53.942Z,27.76
2022-08-02T10:19:05.740Z,27.98
2022-08-02T10:23:20.457Z,27.99
2022-08-02T10:27:49.284Z,28.02
2022-08-02T10:32:11.073Z,28.13
2022-08-02T10:36:26.956Z,28.03
2022-08-02T10:40:51.883Z,28.13
2022-08-02T10:45:17.848Z,28.14
2022-08-02T10:49:44.684Z,28.05
2022-08-02T10:54:08.431Z,27.75
2022-08-02T10:58:26.055Z,27.75
2022-08-02T11:02:40.983Z,28.12
2022-08-02T11:07:14.135Z,28.48
2022-08-02T11:11:53.893Z,28.41
2022-08-02T11:15:57.261Z,28.29
2022-08-02T11:20:08.820Z,28.16
2022-08-02T11:24:26.293Z,27.91
2022-08-02T11:28:38.174Z,27.79
2022-08-02T11:32:49.855Z,27.62
2022-08-02T11:37:01.759Z,27.94
2022-08-02T11:41:47.085Z,27.91
2022-08-02T11:45:53.679Z,27.75
2022-08-02T11:50:09.822Z,27.88
2022-08-02T11:54:30.870Z,28.19
2022-08-02T11:59:00.031Z,28.31
2022-08-02T12:03:12.725Z,28.00
2022-08-02T12:07:45.786Z,28.46
2022-08-02T12:11:59.093Z,28.89
2022-08-02T12:16:31.693Z,29.34
2022-08-02T12:20:43.258Z,29.50
2022-08-02T12:24:56.890Z,29.57
2022-08-02T12:29:08.635Z,29.65
2022-08-02T12:33:21.526Z,29.67
2022-08-02T12:37:33.806Z,29.73
2022-08-02T12:41:54.806Z,29.97
2022-08-02T12:46:15.923Z,30.17
2022-08-02T12:50:34.766Z,30.03
2022-08-02T12:54:48.814Z,30.12
2022-08-02T12:59:00.452Z,30.13
2022-08-02T13:04:11.854Z,30.24
2022-08-02T13:07:43.846Z,30.23
2022-08-02T13:11:55.437Z,30.23
2022-08-02T13:16:08.515Z,30.22
2022-08-02T13:20:20.135Z,30.22
2022-08-02T13:24:40.991Z,30.24
2022-08-02T13:29:04.670Z,30.12
2022-08-02T13:33:17.162Z,29.92
2022-08-02T13:37:28.768Z,30.09
2022-08-02T13:41:41.662Z,30.08
2022-08-02T13:45:53.458Z,30.09
2022-08-02T13:50:06.498Z,30.11
2022-08-02T13:54:18.171Z,30.45
2022-08-02T13:58:29.870Z,30.34
2022-08-02T14:02:41.396Z,30.59
2022-08-02T14:06:53.771Z,30.50
2022-08-02T14:11:05.303Z,30.50
2022-08-02T14:15:16.876Z,30.29
2022-08-02T14:19:28.411Z,30.44
2022-08-02T14:23:49.906Z,30.53
2022-08-02T14:28:04.220Z,30.69
2022-08-02T14:32:16.213Z,30.70
2022-08-02T14:36:28.272Z,30.43
2022-08-02T14:40:39.889Z,30.39
2022-08-02T14:44:51.649Z,30.71
2022-08-02T14:49:04.409Z,30.79
2022-08-02T14:53:16.007Z,30.96
2022-08-02T14:57:27.537Z,31.04
2022-08-02T15:01:39.117Z,31.06
2022-08-02T15:05:50.677Z,30.93
2022-08-02T15:10:02.973Z,30.55
2022-08-02T15:14:14.550Z,30.46
2022-08-02T15:18:26.159Z,30.49
2022-08-02T15:22:38.170Z,30.46
2022-08-02T15:26:50.818Z,30.62
2022-08-02T15:31:02.435Z,30.67
2022-08-02T15:35:13.951Z,30.54
2022-08-02T15:39:25.479Z,30.49
2022-08-02T15:43:59.941Z,30.44
2022-08-02T15:48:08.948Z,30.18
2022-08-02T15:52:20.516Z,30.23
2022-08-02T15:56:32.027Z,30.21
2022-08-02T16:00:43.563Z,30.12
2022-08-02T16:04:55.128Z,30.19
2022-08-02T16:09:06.995Z,30.23
2022-08-02T16:13:41.264Z,30.20
2022-08-02T16:18:05.259Z,30.16
2022-08-02T16:22:17.079Z,30.08
2022-08-02T16:26:29.572Z,29.93
2022-08-02T16:30:42.076Z,29.81
2022-08-02T16:35:08.287Z,29.81
2022-08-02T16:39:20.653Z,29.74
2022-08-02T16:43:32.389Z,29.62
2022-08-02T16:47:55.117Z,29.59
2022-08-02T16:52:09.736Z,29.52
2022-08-02T16:56:21.383Z,29.40
2022-08-02T17:00:35.544Z,29.30
2022-08-02T17:04:47.424Z,29.19
2022-08-02T17:08:59.148Z,29.10
2022-08-02T17:13:12.155Z,29.01
2022-08-02T17:17:33.695Z,28.92
2022-08-02T17:21:46.076Z,28.85
2022-08-02T17:25:57.683Z,28.78
2022-08-02T17:30:10.871Z,28.77
2022-08-02T17:34:27.019Z,28.81
2022-08-02T17:38:50.038Z,28.86
2022-08-02T17:43:03.240Z,28.84
2022-08-02T17:47:30.798Z,28.76
2022-08-02T17:52:47.934Z,28.75
2022-08-02T17:56:15.528Z,28.82
2022-08-02T18:00:37.979Z,28.89
2022-08-02T18:04:49.933Z,28.90
2022-08-02T18:09:04.173Z,28.83
2022-08-02T18:13:19.207Z,28.80
2022-08-02T18:17:31.099Z,28.74
2022-08-02T18:21:44.668Z,28.59
2022-08-02T18:25:57.348Z,28.52
2022-08-02T18:30:09.607Z,28.37
2022-08-02T18:34:24.444Z,28.25
2022-08-02T18:38:37.162Z,28.10
2022-08-02T18:42:49.469Z,27.96
2022-08-02T18:47:01.437Z,27.81
2022-08-02T18:51:13.734Z,27.64
2022-08-02T18:55:59.445Z,27.48
2022-08-02T18:59:56.930Z,27.29
2022-08-02T19:04:09.294Z,27.06
2022-08-02T19:08:26.193Z,26.77
2022-08-02T19:12:38.050Z,26.53
2022-08-02T19:16:49.593Z,26.29
2022-08-02T19:21:05.210Z,26.13
2022-08-02T19:25:20.241Z,25.89
2022-08-02T19:29:43.033Z,25.71
2022-08-02T19:34:07.142Z,25.43
2022-08-02T19:38:19.868Z,25.27
2022-08-02T19:42:31.403Z,25.04
2022-08-02T19:47:02.898Z,24.93
2022-08-02T19:51:14.584Z,24.80
2022-08-02T19:56:00.795Z,24.65
2022-08-02T19:59:57.841Z,24.51
2022-08-02T20:04:13.553Z,24.39
2022-08-02T20:08:31.734Z,24.29
2022-08-02T20:12:47.377Z,24.11
2022-08-02T20:16:59.889Z,24.00
2022-08-02T20:21:34.196Z,23.86
2022-08-02T20:25:45.265Z,23.77
2022-08-02T20:29:57.075Z,23.61
2022-08-02T20:34:08.674Z,23.50
2022-08-02T20:38:24.750Z,23.42
2022-08-02T20:42:39.504Z,23.31
2022-08-02T20:46:51.071Z,23.14
2022-08-02T20:51:09.564Z,23.08
2022-08-02T20:55:23.707Z,22.96
2022-08-02T20:59:37.177Z,22.83
2022-08-02T21:03:58.869Z,22.70
2022-08-02T21:08:13.980Z,22.55
2022-08-02T21:12:30.014Z,22.46
2022-08-02T21:16:42.042Z,22.35
2022-08-02T21:20:54.679Z,22.19
2022-08-02T21:25:09.033Z,22.09
2022-08-02T21:29:20.899Z,21.98
